sensor_id;sensor_type;location;lat;lon;timestamp;pressure;altitude;pressure_sealevel;temperature;humidity
46638;BME280;32365;46.938;7.390;2023-01-30T06:41:47;96035.66;;;-5.77;92.64
46638;BME280;32365;46.938;7.390;2023-01-30T06:44:14;96026.47;;;-5.78;92.06
46638;BME280;32365;46.938;7.390;2023-01-30T06:46:40;96021.09;;;-5.74;92.26
46638;BME280;32365;46.938;7.390;2023-01-30T06:49:07;96014.72;;;-5.66;92.75
46638;BME280;32365;46.938;7.390;2023-01-30T06:51:33;96021.69;;;-5.59;92.32
46638;BME280;32365;46.938;7.390;2023-01-30T06:54:00;96018.63;;;-5.39;91.66
46638;BME280;32365;46.938;7.390;2023-01-30T06:56:27;96000.19;;;-5.17;90.41
46638;BME280;32365;46.938;7.390;2023-01-30T06:58:54;96000.91;;;-5.27;90.63
46638;BME280;32365;46.938;7.390;2023-01-30T07:01:21;95994.25;;;-5.16;90.66
46638;BME280;32365;46.938;7.390;2023-01-30T07:03:47;95983.09;;;-5.14;90.65
46638;BME280;32365;46.938;7.390;2023-01-30T07:06:14;95995.50;;;-5.11;90.77
46638;BME280;32365;46.938;7.390;2023-01-30T07:08:40;96028.44;;;-4.78;90.39
46638;BME280;32365;46.938;7.390;2023-01-30T07:11:08;96051.53;;;-4.83;89.39
46638;BME280;32365;46.938;7.390;2023-01-30T07:13:35;96067.38;;;-4.69;89.54
46638;BME280;32365;46.938;7.390;2023-01-30T07:16:03;96060.56;;;-4.57;89.71
46638;BME280;32365;46.938;7.390;2023-01-30T07:18:30;96071.59;;;-4.47;89.89
46638;BME280;32365;46.938;7.390;2023-01-30T07:20:56;96083.53;;;-4.38;89.83
46638;BME280;32365;46.938;7.390;2023-01-30T07:23:23;96087.91;;;-4.28;89.35
46638;BME280;32365;46.938;7.390;2023-01-30T07:25:49;96088.34;;;-4.23;88.95
46638;BME280;32365;46.938;7.390;2023-01-30T07:28:16;96093.88;;;-4.29;88.62
46638;BME280;32365;46.938;7.390;2023-01-30T07:30:42;96091.22;;;-4.28;88.94
46638;BME280;32365;46.938;7.390;2023-01-30T07:33:10;96084.56;;;-4.29;88.49
46638;BME280;32365;46.938;7.390;2023-01-30T07:35:37;96087.59;;;-4.03;87.39
46638;BME280;32365;46.938;7.390;2023-01-30T07:38:04;96098.88;;;-4.07;87.37
46638;BME280;32365;46.938;7.390;2023-01-30T07:40:30;96101.75;;;-4.00;87.76
46638;BME280;32365;46.938;7.390;2023-01-30T07:42:58;96102.91;;;-4.04;88.34
46638;BME280;32365;46.938;7.390;2023-01-30T07:45:27;96111.94;;;-3.90;88.30
46638;BME280;32365;46.938;7.390;2023-01-30T07:47:55;96110.28;;;-3.68;86.91
46638;BME280;32365;46.938;7.390;2023-01-30T07:50:22;96109.22;;;-3.66;87.19
46638;BME280;32365;46.938;7.390;2023-01-30T07:52:49;96104.59;;;-3.61;87.32
46638;BME280;32365;46.938;7.390;2023-01-30T07:55:16;96115.16;;;-3.56;87.63
46638;BME280;32365;46.938;7.390;2023-01-30T07:57:42;96114.84;;;-3.62;87.49
46638;BME280;32365;46.938;7.390;2023-01-30T08:00:10;96116.66;;;-3.53;88.06
46638;BME280;32365;46.938;7.390;2023-01-30T08:02:37;96114.88;;;-3.41;87.63
46638;BME280;32365;46.938;7.390;2023-01-30T08:05:04;96109.25;;;-3.23;87.33
46638;BME280;32365;46.938;7.390;2023-01-30T08:07:32;96102.50;;;-3.02;86.70
46638;BME280;32365;46.938;7.390;2023-01-30T08:09:59;96107.47;;;-2.90;85.87
46638;BME280;32365;46.938;7.390;2023-01-30T08:12:25;96098.66;;;-2.96;86.53
46638;BME280;32365;46.938;7.390;2023-01-30T08:14:52;96098.31;;;-2.82;86.56
46638;BME280;32365;46.938;7.390;2023-01-30T08:17:18;96098.59;;;-2.75;85.56
46638;BME280;32365;46.938;7.390;2023-01-30T08:19:45;96098.50;;;-2.64;84.91
46638;BME280;32365;46.938;7.390;2023-01-30T08:22:11;96107.44;;;-2.69;84.36
46638;BME280;32365;46.938;7.390;2023-01-30T08:24:39;96105.47;;;-2.66;84.75
46638;BME280;32365;46.938;7.390;2023-01-30T08:27:06;96116.16;;;-2.62;84.88
46638;BME280;32365;46.938;7.390;2023-01-30T08:29:32;96113.91;;;-2.55;84.78
46638;BME280;32365;46.938;7.390;2023-01-30T08:32:00;96111.81;;;-2.40;83.39
46638;BME280;32365;46.938;7.390;2023-01-30T08:34:26;96117.91;;;-2.12;83.16
46638;BME280;32365;46.938;7.390;2023-01-30T08:36:53;96123.28;;;-2.05;81.95
46638;BME280;32365;46.938;7.390;2023-01-30T08:39:19;96125.78;;;-2.15;81.92
46638;BME280;32365;46.938;7.390;2023-01-30T08:41:47;96121.53;;;-2.14;82.28
46638;BME280;32365;46.938;7.390;2023-01-30T08:44:14;96116.44;;;-2.14;81.53
46638;BME280;32365;46.938;7.390;2023-01-30T08:46:40;96130.19;;;-2.17;82.36
46638;BME280;32365;46.938;7.390;2023-01-30T08:49:07;96127.84;;;-1.89;81.45
46638;BME280;32365;46.938;7.390;2023-01-30T08:51:33;96122.91;;;-1.91;81.37
46638;BME280;32365;46.938;7.390;2023-01-30T08:54:00;96135.84;;;-1.94;80.39
46638;BME280;32365;46.938;7.390;2023-01-30T08:56:26;96140.56;;;-1.79;80.11
46638;BME280;32365;46.938;7.390;2023-01-30T08:58:54;96152.19;;;-1.77;81.08
46638;BME280;32365;46.938;7.390;2023-01-30T09:01:21;96148.97;;;-1.69;80.65
46638;BME280;32365;46.938;7.390;2023-01-30T09:03:47;96141.91;;;-1.56;79.56
46638;BME280;32365;46.938;7.390;2023-01-30T09:06:14;96132.53;;;-1.06;77.98
46638;BME280;32365;46.938;7.390;2023-01-30T09:08:40;96124.97;;;-0.68;77.04
46638;BME280;32365;46.938;7.390;2023-01-30T09:11:08;96136.22;;;-0.71;75.42
46638;BME280;32365;46.938;7.390;2023-01-30T09:13:36;96143.97;;;0.21;74.28
46638;BME280;32365;46.938;7.390;2023-01-30T09:16:06;96141.31;;;1.82;66.07
46638;BME280;32365;46.938;7.390;2023-01-30T09:18:33;96130.00;;;2.61;62.36
46638;BME280;32365;46.938;7.390;2023-01-30T09:21:03;96129.34;;;2.34;64.02
46638;BME280;32365;46.938;7.390;2023-01-30T09:23:29;96127.16;;;2.81;60.68
46638;BME280;32365;46.938;7.390;2023-01-30T09:25:56;96127.38;;;3.92;58.89
46638;BME280;32365;46.938;7.390;2023-01-30T09:28:24;96132.34;;;4.25;57.26
46638;BME280;32365;46.938;7.390;2023-01-30T09:30:51;96132.91;;;6.03;51.52
46638;BME280;32365;46.938;7.390;2023-01-30T09:33:19;96138.53;;;6.13;49.32
46638;BME280;32365;46.938;7.390;2023-01-30T09:35:46;96150.66;;;6.35;48.85
46638;BME280;32365;46.938;7.390;2023-01-30T09:38:12;96148.66;;;5.55;51.55
46638;BME280;32365;46.938;7.390;2023-01-30T09:40:49;96139.97;;;6.53;48.72
46638;BME280;32365;46.938;7.390;2023-01-30T09:43:34;96136.78;;;6.51;48.35
46638;BME280;32365;46.938;7.390;2023-01-30T09:46:11;96142.09;;;6.71;47.79
46638;BME280;32365;46.938;7.390;2023-01-30T09:48:50;96145.50;;;7.21;47.23
46638;BME280;32365;46.938;7.390;2023-01-30T09:51:42;96138.75;;;8.39;42.83
46638;BME280;32365;46.938;7.390;2023-01-30T09:54:24;96153.50;;;6.25;48.27
46638;BME280;32365;46.938;7.390;2023-01-30T09:56:58;96160.41;;;6.39;49.52
46638;BME280;32365;46.938;7.390;2023-01-30T09:59:30;96166.38;;;7.33;48.25
46638;BME280;32365;46.938;7.390;2023-01-30T10:02:02;96155.72;;;10.22;39.57
46638;BME280;32365;46.938;7.390;2023-01-30T10:04:36;96158.53;;;9.01;41.61
46638;BME280;32365;46.938;7.390;2023-01-30T10:07:15;96172.28;;;8.39;45.03
46638;BME280;32365;46.938;7.390;2023-01-30T10:09:48;96178.63;;;7.95;43.45
46638;BME280;32365;46.938;7.390;2023-01-30T10:12:32;96178.50;;;8.03;43.51
46638;BME280;32365;46.938;7.390;2023-01-30T10:15:24;96180.94;;;8.80;41.56
46638;BME280;32365;46.938;7.390;2023-01-30T10:18:04;96177.50;;;9.87;40.54
46638;BME280;32365;46.938;7.390;2023-01-30T10:20:43;96171.56;;;11.97;36.11
46638;BME280;32365;46.938;7.390;2023-01-30T10:23:25;96162.31;;;11.20;36.13
46638;BME280;32365;46.938;7.390;2023-01-30T10:26:01;96160.50;;;10.96;36.00
46638;BME280;32365;46.938;7.390;2023-01-30T10:28:34;96154.25;;;10.46;37.42
46638;BME280;32365;46.938;7.390;2023-01-30T10:31:07;96145.72;;;12.09;34.27
46638;BME280;32365;46.938;7.390;2023-01-30T10:33:40;96145.69;;;9.93;38.14
46638;BME280;32365;46.938;7.390;2023-01-30T10:36:13;96146.38;;;10.59;37.13
46638;BME280;32365;46.938;7.390;2023-01-30T10:38:45;96141.28;;;11.54;34.58
46638;BME280;32365;46.938;7.390;2023-01-30T10:41:18;96152.84;;;12.32;32.80
46638;BME280;32365;46.938;7.390;2023-01-30T10:43:49;96155.91;;;11.48;33.94
46638;BME280;32365;46.938;7.390;2023-01-30T10:46:31;96173.13;;;11.61;34.53
46638;BME280;32365;46.938;7.390;2023-01-30T10:49:04;96173.78;;;11.57;33.85
46638;BME280;32365;46.938;7.390;2023-01-30T10:51:40;96149.59;;;11.37;34.58
46638;BME280;32365;46.938;7.390;2023-01-30T10:54:12;96164.47;;;9.21;37.24
46638;BME280;32365;46.938;7.390;2023-01-30T10:56:44;96162.88;;;10.65;35.99
46638;BME280;32365;46.938;7.390;2023-01-30T10:59:21;96170.50;;;10.60;34.97
46638;BME280;32365;46.938;7.390;2023-01-30T11:01:54;96177.41;;;11.05;34.73
46638;BME280;32365;46.938;7.390;2023-01-30T11:04:29;96153.22;;;11.11;33.62
46638;BME280;32365;46.938;7.390;2023-01-30T11:06:59;96145.91;;;10.37;35.71
46638;BME280;32365;46.938;7.390;2023-01-30T11:09:37;96140.19;;;9.56;37.40
46638;BME280;32365;46.938;7.390;2023-01-30T11:12:04;96130.31;;;9.26;38.00
46638;BME280;32365;46.938;7.390;2023-01-30T11:14:49;96119.19;;;9.19;37.56
46638;BME280;32365;46.938;7.390;2023-01-30T11:17:17;96119.38;;;9.31;37.33
46638;BME280;32365;46.938;7.390;2023-01-30T11:19:44;96134.44;;;9.34;37.79
46638;BME280;32365;46.938;7.390;2023-01-30T11:22:13;96125.16;;;9.19;36.60
46638;BME280;32365;46.938;7.390;2023-01-30T11:24:41;96119.78;;;9.28;37.34
46638;BME280;32365;46.938;7.390;2023-01-30T11:27:09;96119.25;;;9.84;35.49
46638;BME280;32365;46.938;7.390;2023-01-30T11:29:38;96114.09;;;10.23;36.17
46638;BME280;32365;46.938;7.390;2023-01-30T11:32:10;96120.41;;;10.41;34.63
46638;BME280;32365;46.938;7.390;2023-01-30T11:34:37;96103.03;;;10.80;34.32
46638;BME280;32365;46.938;7.390;2023-01-30T11:37:22;96094.19;;;11.76;32.55
46638;BME280;32365;46.938;7.390;2023-01-30T11:39:52;96093.38;;;10.69;34.99
46638;BME280;32365;46.938;7.390;2023-01-30T11:42:21;96094.78;;;11.15;32.96
46638;BME280;32365;46.938;7.390;2023-01-30T11:44:54;96084.81;;;11.56;33.04
46638;BME280;32365;46.938;7.390;2023-01-30T11:47:23;96075.00;;;11.77;31.54
46638;BME280;32365;46.938;7.390;2023-01-30T11:49:52;96067.94;;;10.84;32.35
46638;BME280;32365;46.938;7.390;2023-01-30T11:52:25;96062.81;;;9.68;34.76
46638;BME280;32365;46.938;7.390;2023-01-30T11:54:57;96049.03;;;10.20;34.01
46638;BME280;32365;46.938;7.390;2023-01-30T11:57:30;96054.72;;;11.55;31.43
46638;BME280;32365;46.938;7.390;2023-01-30T12:00:05;96061.06;;;10.00;34.65
46638;BME280;32365;46.938;7.390;2023-01-30T12:02:34;96061.88;;;9.55;35.02
46638;BME280;32365;46.938;7.390;2023-01-30T12:05:06;96052.66;;;9.73;35.63
46638;BME280;32365;46.938;7.390;2023-01-30T12:07:43;96038.50;;;9.17;35.86
46638;BME280;32365;46.938;7.390;2023-01-30T12:10:25;96020.66;;;8.61;38.40
46638;BME280;32365;46.938;7.390;2023-01-30T12:12:53;96008.72;;;10.05;34.88
46638;BME280;32365;46.938;7.390;2023-01-30T12:15:23;96012.09;;;9.74;36.36
46638;BME280;32365;46.938;7.390;2023-01-30T12:17:56;96016.72;;;10.29;35.99
46638;BME280;32365;46.938;7.390;2023-01-30T12:20:36;96001.78;;;9.67;37.99
46638;BME280;32365;46.938;7.390;2023-01-30T12:23:14;96019.84;;;11.14;34.37
46638;BME280;32365;46.938;7.390;2023-01-30T12:25:46;96032.66;;;9.94;35.98
46638;BME280;32365;46.938;7.390;2023-01-30T12:28:23;96026.50;;;9.88;37.24
46638;BME280;32365;46.938;7.390;2023-01-30T12:30:55;96023.38;;;10.50;35.47
46638;BME280;32365;46.938;7.390;2023-01-30T12:33:27;96026.31;;;9.90;36.93
46638;BME280;32365;46.938;7.390;2023-01-30T12:36:06;96019.47;;;8.91;38.60
46638;BME280;32365;46.938;7.390;2023-01-30T12:39:12;96015.88;;;8.25;39.63
46638;BME280;32365;46.938;7.390;2023-01-30T12:41:50;95994.22;;;9.59;37.46
46638;BME280;32365;46.938;7.390;2023-01-30T12:44:27;95985.34;;;9.86;36.43
46638;BME280;32365;46.938;7.390;2023-01-30T12:47:09;95981.88;;;9.99;37.74
46638;BME280;32365;46.938;7.390;2023-01-30T12:49:46;95994.06;;;9.92;36.76
46638;BME280;32365;46.938;7.390;2023-01-30T12:52:37;96006.00;;;7.66;41.32
46638;BME280;32365;46.938;7.390;2023-01-30T12:55:18;95996.41;;;9.09;38.27
46638;BME280;32365;46.938;7.390;2023-01-30T12:57:52;95987.25;;;10.05;37.02
46638;BME280;32365;46.938;7.390;2023-01-30T13:00:30;95976.47;;;10.40;36.80
46638;BME280;32365;46.938;7.390;2023-01-30T13:03:10;95967.19;;;9.61;39.11
46638;BME280;32365;46.938;7.390;2023-01-30T13:05:46;95972.34;;;10.57;37.60
46638;BME280;32365;46.938;7.390;2023-01-30T13:08:27;95983.72;;;10.56;37.18
46638;BME280;32365;46.938;7.390;2023-01-30T13:11:07;95988.06;;;9.60;39.34
46638;BME280;32365;46.938;7.390;2023-01-30T13:13:42;95979.19;;;8.56;41.16
46638;BME280;32365;46.938;7.390;2023-01-30T13:16:18;95966.72;;;7.51;43.65
46638;BME280;32365;46.938;7.390;2023-01-30T13:18:51;95962.63;;;6.80;45.88
46638;BME280;32365;46.938;7.390;2023-01-30T13:21:23;95958.88;;;6.04;48.75
46638;BME280;32365;46.938;7.390;2023-01-30T13:24:03;95978.41;;;6.20;49.53
46638;BME280;32365;46.938;7.390;2023-01-30T13:26:35;95972.34;;;6.27;48.59
46638;BME280;32365;46.938;7.390;2023-01-30T13:29:04;95972.81;;;6.95;47.22
46638;BME280;32365;46.938;7.390;2023-01-30T13:31:40;95972.28;;;6.42;48.90
46638;BME280;32365;46.938;7.390;2023-01-30T13:34:19;95980.19;;;5.61;50.75
46638;BME280;32365;46.938;7.390;2023-01-30T13:36:51;95982.81;;;6.26;49.93
46638;BME280;32365;46.938;7.390;2023-01-30T13:39:26;95974.59;;;5.20;52.26
46638;BME280;32365;46.938;7.390;2023-01-30T13:41:58;95987.22;;;6.54;47.90
46638;BME280;32365;46.938;7.390;2023-01-30T13:44:27;95992.91;;;6.27;47.88
46638;BME280;32365;46.938;7.390;2023-01-30T13:46:56;95982.56;;;6.21;48.00
46638;BME280;32365;46.938;7.390;2023-01-30T13:49:28;95985.38;;;5.82;49.66
46638;BME280;32365;46.938;7.390;2023-01-30T13:52:04;95983.38;;;5.99;49.24
46638;BME280;32365;46.938;7.390;2023-01-30T13:54:46;95977.28;;;6.00;49.96
46638;BME280;32365;46.938;7.390;2023-01-30T13:57:24;95979.84;;;6.79;48.04
46638;BME280;32365;46.938;7.390;2023-01-30T14:00:18;95964.78;;;6.76;48.06
46638;BME280;32365;46.938;7.390;2023-01-30T14:03:14;95958.56;;;6.63;47.18
46638;BME280;32365;46.938;7.390;2023-01-30T14:05:59;95957.16;;;6.61;48.22
46638;BME280;32365;46.938;7.390;2023-01-30T14:08:28;95953.00;;;6.60;48.15
46638;BME280;32365;46.938;7.390;2023-01-30T14:10:56;95958.81;;;5.97;49.14
46638;BME280;32365;46.938;7.390;2023-01-30T14:13:25;95963.25;;;5.66;50.07
46638;BME280;32365;46.938;7.390;2023-01-30T14:15:54;95969.66;;;5.55;51.46
46638;BME280;32365;46.938;7.390;2023-01-30T14:18:23;95972.56;;;5.01;52.99
46638;BME280;32365;46.938;7.390;2023-01-30T14:21:11;95986.56;;;4.83;56.05
46638;BME280;32365;46.938;7.390;2023-01-30T14:23:39;95990.41;;;4.49;54.05
46638;BME280;32365;46.938;7.390;2023-01-30T14:26:07;95997.91;;;4.27;56.15
46638;BME280;32365;46.938;7.390;2023-01-30T14:28:45;95990.03;;;4.14;56.04
46638;BME280;32365;46.938;7.390;2023-01-30T14:40:40;95987.50;;;4.06;56.34
46638;BME280;32365;46.938;7.390;2023-01-30T14:46:43;95985.19;;;3.96;57.72
46638;BME280;32365;46.938;7.390;2023-01-30T14:49:25;95984.50;;;3.79;58.21
46638;BME280;32365;46.938;7.390;2023-01-30T14:51:52;95990.63;;;3.69;58.36
46638;BME280;32365;46.938;7.390;2023-01-30T14:54:24;95990.34;;;3.64;59.38
46638;BME280;32365;46.938;7.390;2023-01-30T14:56:54;95997.19;;;3.72;59.43
46638;BME280;32365;46.938;7.390;2023-01-30T14:59:25;95994.66;;;3.64;58.46
46638;BME280;32365;46.938;7.390;2023-01-30T15:01:59;95988.50;;;3.81;58.47
46638;BME280;32365;46.938;7.390;2023-01-30T15:04:29;95990.88;;;4.06;57.41
46638;BME280;32365;46.938;7.390;2023-01-30T15:06:58;95981.66;;;4.20;56.90
46638;BME280;32365;46.938;7.390;2023-01-30T15:09:27;95999.19;;;4.31;56.40
46638;BME280;32365;46.938;7.390;2023-01-30T15:12:14;95993.31;;;4.23;55.97
46638;BME280;32365;46.938;7.390;2023-01-30T15:14:53;95993.38;;;4.38;56.35
46638;BME280;32365;46.938;7.390;2023-01-30T15:17:29;95997.69;;;4.37;55.59
46638;BME280;32365;46.938;7.390;2023-01-30T15:20:25;96000.75;;;4.18;55.71
46638;BME280;32365;46.938;7.390;2023-01-30T15:23:13;96006.31;;;4.21;56.44
46638;BME280;32365;46.938;7.390;2023-01-30T15:26:02;96008.75;;;3.91;56.27
46638;BME280;32365;46.938;7.390;2023-01-30T15:28:39;96015.00;;;3.89;56.33
46638;BME280;32365;46.938;7.390;2023-01-30T15:31:12;96019.56;;;3.78;56.86
46638;BME280;32365;46.938;7.390;2023-01-30T15:33:43;96016.59;;;3.58;57.58
46638;BME280;32365;46.938;7.390;2023-01-30T15:36:18;96027.31;;;3.62;57.24
46638;BME280;32365;46.938;7.390;2023-01-30T15:38:54;96024.47;;;3.57;57.94
46638;BME280;32365;46.938;7.390;2023-01-30T15:41:21;96033.16;;;3.47;58.28
46638;BME280;32365;46.938;7.390;2023-01-30T15:44:38;96031.97;;;3.58;58.21
46638;BME280;32365;46.938;7.390;2023-01-30T15:47:19;96033.03;;;3.32;59.85
46638;BME280;32365;46.938;7.390;2023-01-30T15:49:55;96032.06;;;3.33;59.06
46638;BME280;32365;46.938;7.390;2023-01-30T15:52:25;96039.13;;;3.23;60.22
46638;BME280;32365;46.938;7.390;2023-01-30T15:54:58;96038.41;;;3.46;59.05
46638;BME280;32365;46.938;7.390;2023-01-30T15:57:29;96037.91;;;3.50;58.46
46638;BME280;32365;46.938;7.390;2023-01-30T16:00:00;96037.78;;;3.44;59.30
46638;BME280;32365;46.938;7.390;2023-01-30T16:02:30;96034.06;;;3.15;61.38
46638;BME280;32365;46.938;7.390;2023-01-30T16:05:14;96038.34;;;3.14;61.00
46638;BME280;32365;46.938;7.390;2023-01-30T16:07:42;96033.09;;;3.16;60.47
46638;BME280;32365;46.938;7.390;2023-01-30T16:10:12;96035.06;;;3.05;60.94
46638;BME280;32365;46.938;7.390;2023-01-30T16:12:39;96037.94;;;2.94;62.09
46638;BME280;32365;46.938;7.390;2023-01-30T16:15:13;96034.75;;;2.84;61.88
46638;BME280;32365;46.938;7.390;2023-01-30T16:17:44;96032.53;;;2.81;62.51
46638;BME280;32365;46.938;7.390;2023-01-30T16:20:14;96033.16;;;2.83;62.45
46638;BME280;32365;46.938;7.390;2023-01-30T16:22:43;96034.13;;;2.90;62.52
46638;BME280;32365;46.938;7.390;2023-01-30T16:25:17;96040.97;;;2.89;62.16
46638;BME280;32365;46.938;7.390;2023-01-30T16:27:46;96044.16;;;2.91;62.53
46638;BME280;32365;46.938;7.390;2023-01-30T16:30:21;96038.44;;;2.81;63.49
46638;BME280;32365;46.938;7.390;2023-01-30T16:32:50;96054.13;;;2.70;63.54
46638;BME280;32365;46.938;7.390;2023-01-30T16:35:26;96058.25;;;2.54;64.91
46638;BME280;32365;46.938;7.390;2023-01-30T16:37:56;96060.03;;;2.70;64.46
46638;BME280;32365;46.938;7.390;2023-01-30T16:40:24;96069.59;;;2.76;64.92
46638;BME280;32365;46.938;7.390;2023-01-30T16:42:55;96079.03;;;2.68;65.44
46638;BME280;32365;46.938;7.390;2023-01-30T16:46:02;96087.84;;;2.57;66.75
46638;BME280;32365;46.938;7.390;2023-01-30T16:48:44;96092.78;;;2.50;66.07
46638;BME280;32365;46.938;7.390;2023-01-30T16:51:20;96090.88;;;2.52;65.68
46638;BME280;32365;46.938;7.390;2023-01-30T16:53:55;96090.53;;;2.47;65.45
46638;BME280;32365;46.938;7.390;2023-01-30T16:56:23;96086.88;;;2.58;66.43
46638;BME280;32365;46.938;7.390;2023-01-30T16:58:53;96094.38;;;2.59;66.69
46638;BME280;32365;46.938;7.390;2023-01-30T17:01:33;96087.69;;;2.50;67.00
46638;BME280;32365;46.938;7.390;2023-01-30T17:04:03;96090.72;;;2.54;67.44
46638;BME280;32365;46.938;7.390;2023-01-30T17:06:35;96092.75;;;2.34;68.77
46638;BME280;32365;46.938;7.390;2023-01-30T17:09:05;96094.97;;;2.20;69.91
46638;BME280;32365;46.938;7.390;2023-01-30T17:11:34;96104.22;;;2.13;70.25
46638;BME280;32365;46.938;7.390;2023-01-30T17:14:21;96110.13;;;2.13;69.58
46638;BME280;32365;46.938;7.390;2023-01-30T17:17:00;96112.38;;;2.08;69.47
46638;BME280;32365;46.938;7.390;2023-01-30T17:19:27;96108.97;;;1.91;70.36
46638;BME280;32365;46.938;7.390;2023-01-30T17:21:54;96116.00;;;1.97;70.57
46638;BME280;32365;46.938;7.390;2023-01-30T17:24:22;96115.03;;;1.98;70.20
46638;BME280;32365;46.938;7.390;2023-01-30T17:26:51;96116.00;;;2.06;69.83
46638;BME280;32365;46.938;7.390;2023-01-30T17:29:23;96116.94;;;1.88;69.49
46638;BME280;32365;46.938;7.390;2023-01-30T17:31:51;96117.06;;;1.87;70.48
46638;BME280;32365;46.938;7.390;2023-01-30T17:34:19;96125.00;;;1.75;70.58
46638;BME280;32365;46.938;7.390;2023-01-30T17:36:48;96128.56;;;1.82;70.75
46638;BME280;32365;46.938;7.390;2023-01-30T17:39:18;96130.47;;;1.89;71.01
46638;BME280;32365;46.938;7.390;2023-01-30T17:41:45;96136.72;;;1.94;70.23
46638;BME280;32365;46.938;7.390;2023-01-30T17:44:12;96136.41;;;1.89;70.47
46638;BME280;32365;46.938;7.390;2023-01-30T17:46:41;96138.88;;;1.73;71.28
46638;BME280;32365;46.938;7.390;2023-01-30T17:49:13;96144.09;;;1.63;72.09
46638;BME280;32365;46.938;7.390;2023-01-30T17:51:41;96147.72;;;1.52;72.19
46638;BME280;32365;46.938;7.390;2023-01-30T17:54:08;96149.16;;;1.54;72.22
46638;BME280;32365;46.938;7.390;2023-01-30T17:56:38;96154.88;;;1.48;71.53
46638;BME280;32365;46.938;7.390;2023-01-30T17:59:08;96144.81;;;1.47;70.85
46638;BME280;32365;46.938;7.390;2023-01-30T18:01:37;96156.78;;;1.46;71.40
46638;BME280;32365;46.938;7.390;2023-01-30T18:04:04;96154.56;;;1.25;73.19
46638;BME280;32365;46.938;7.390;2023-01-30T18:06:31;96161.94;;;1.28;74.61
46638;BME280;32365;46.938;7.390;2023-01-30T18:09:00;96168.63;;;1.29;73.90
46638;BME280;32365;46.938;7.390;2023-01-30T18:11:26;96173.59;;;1.31;75.09
46638;BME280;32365;46.938;7.390;2023-01-30T18:13:54;96173.28;;;1.34;75.07
46638;BME280;32365;46.938;7.390;2023-01-30T18:16:23;96189.91;;;1.38;74.88
46638;BME280;32365;46.938;7.390;2023-01-30T18:18:51;96196.91;;;1.36;74.90
46638;BME280;32365;46.938;7.390;2023-01-30T18:21:17;96195.09;;;1.28;75.47
46638;BME280;32365;46.938;7.390;2023-01-30T18:23:46;96193.66;;;1.26;74.38
46638;BME280;32365;46.938;7.390;2023-01-30T18:26:18;96200.34;;;1.08;74.82
46638;BME280;32365;46.938;7.390;2023-01-30T18:28:45;96199.47;;;1.36;73.16
46638;BME280;32365;46.938;7.390;2023-01-30T18:31:12;96192.22;;;1.49;71.77
46638;BME280;32365;46.938;7.390;2023-01-30T18:33:40;96187.16;;;1.58;71.00
46638;BME280;32365;46.938;7.390;2023-01-30T18:36:11;96188.06;;;1.48;72.14
46638;BME280;32365;46.938;7.390;2023-01-30T18:38:38;96196.91;;;1.36;73.29
46638;BME280;32365;46.938;7.390;2023-01-30T18:41:06;96201.34;;;1.34;73.70
46638;BME280;32365;46.938;7.390;2023-01-30T18:43:34;96201.19;;;1.35;74.47
46638;BME280;32365;46.938;7.390;2023-01-30T18:46:03;96202.78;;;1.36;73.36
46638;BME280;32365;46.938;7.390;2023-01-30T18:48:30;96207.91;;;1.36;72.24
46638;BME280;32365;46.938;7.390;2023-01-30T18:51:03;96209.97;;;1.33;72.19
46638;BME280;32365;46.938;7.390;2023-01-30T18:53:29;96209.28;;;1.31;72.11
46638;BME280;32365;46.938;7.390;2023-01-30T18:55:56;96214.06;;;1.26;73.96
46638;BME280;32365;46.938;7.390;2023-01-30T18:58:22;96205.81;;;1.32;73.32
46638;BME280;32365;46.938;7.390;2023-01-30T19:00:50;96206.66;;;1.41;74.84
46638;BME280;32365;46.938;7.390;2023-01-30T19:03:17;96201.81;;;1.56;75.35
46638;BME280;32365;46.938;7.390;2023-01-30T19:05:43;96202.97;;;1.35;76.67
46638;BME280;32365;46.938;7.390;2023-01-30T19:08:10;96204.47;;;1.28;77.72
46638;BME280;32365;46.938;7.390;2023-01-30T19:10:36;96195.09;;;1.28;77.46
46638;BME280;32365;46.938;7.390;2023-01-30T19:13:03;96198.47;;;1.11;77.26
46638;BME280;32365;46.938;7.390;2023-01-30T19:15:46;96203.13;;;0.97;78.57
46638;BME280;32365;46.938;7.390;2023-01-30T19:18:14;96213.22;;;0.99;79.09
46638;BME280;32365;46.938;7.390;2023-01-30T19:20:41;96211.31;;;1.01;79.12
46638;BME280;32365;46.938;7.390;2023-01-30T19:23:07;96218.81;;;1.02;79.15
46638;BME280;32365;46.938;7.390;2023-01-30T19:25:34;96218.97;;;1.01;78.52
46638;BME280;32365;46.938;7.390;2023-01-30T19:28:01;96219.47;;;1.04;78.72
46638;BME280;32365;46.938;7.390;2023-01-30T19:30:27;96225.56;;;1.12;79.04
46638;BME280;32365;46.938;7.390;2023-01-30T19:32:53;96216.16;;;1.30;78.80
46638;BME280;32365;46.938;7.390;2023-01-30T19:35:24;96215.00;;;1.25;79.02
46638;BME280;32365;46.938;7.390;2023-01-30T19:37:51;96210.97;;;1.22;78.99
46638;BME280;32365;46.938;7.390;2023-01-30T19:40:19;96207.97;;;1.27;79.03
46638;BME280;32365;46.938;7.390;2023-01-30T19:42:45;96203.31;;;1.22;79.30
46638;BME280;32365;46.938;7.390;2023-01-30T19:45:12;96207.13;;;1.18;79.62
46638;BME280;32365;46.938;7.390;2023-01-30T19:47:39;96201.22;;;1.17;80.07
46638;BME280;32365;46.938;7.390;2023-01-30T19:50:06;96195.31;;;1.35;79.12
46638;BME280;32365;46.938;7.390;2023-01-30T19:52:34;96207.00;;;1.46;78.32
46638;BME280;32365;46.938;7.390;2023-01-30T19:55:01;96203.66;;;1.19;79.02
46638;BME280;32365;46.938;7.390;2023-01-30T19:57:29;96203.56;;;1.11;79.69
46638;BME280;32365;46.938;7.390;2023-01-30T19:59:56;96198.91;;;1.06;79.85
46638;BME280;32365;46.938;7.390;2023-01-30T20:02:22;96198.47;;;1.11;79.19
46638;BME280;32365;46.938;7.390;2023-01-30T20:04:49;96191.19;;;0.98;79.37
46638;BME280;32365;46.938;7.390;2023-01-30T20:07:15;96193.31;;;1.02;79.60
46638;BME280;32365;46.938;7.390;2023-01-30T20:09:43;96201.41;;;0.98;80.05
